Time;durP1;ratioP1;P1;durP2;ratioP2;P2;SDS_P1;SDS_P2;PMS_P1;PMS_P2;Temp;Humidity;BMP_temperature;BMP_pressure;BME280_temperature;BME280_humidity;BME280_pressure;Samples;Min_cycle;Max_cycle;Signal;HPM_P1;HPM_P2
2023/08/13 00:00:31;;;;;;;;;;;;;;;23.78;58.49;101629.81;5066350;28;19914;-59
2023/08/13 00:02:56;;;;;;;;;;;;;;;23.77;58.48;101618.13;5065733;28;19912;-59
2023/08/13 00:05:22;;;;;;;;;;;;;;;23.76;58.38;101621.88;5065762;28;19923;-59
2023/08/13 00:07:47;;;;;;;;;;;;;;;23.76;58.25;101621.88;5064502;28;20293;-60
2023/08/13 00:10:12;;;;;;;;;;;;;;;23.76;58.39;101623.75;5066354;28;20024;-59
2023/08/13 00:12:38;;;;;;;;;;;;;;;23.75;58.34;101628.31;5066267;28;20460;-59
2023/08/13 00:15:04;;;;;;;;;;;;;;;23.75;58.44;101632.91;5065798;28;19912;-59
2023/08/13 00:17:29;;;;;;;;;;;;;;;23.75;58.18;101620.19;5065393;28;19920;-59
2023/08/13 00:19:54;;;;;;;;;;;;;;;23.74;58.22;101614.91;5065746;28;19921;-59
2023/08/13 00:22:21;;;;;;;;;;;;;;;23.76;58.06;101626.44;5066396;28;19932;-59
2023/08/13 00:24:46;;;;;;;;;;;;;;;23.75;58.10;101619.34;5065731;28;19984;-59
2023/08/13 00:27:11;;;;;;;;;;;;;;;23.74;58.19;101613.03;5065699;28;19924;-60
2023/08/13 00:29:39;;;;;;;;;;;;;;;23.75;58.06;101616.63;5064428;28;19976;-59
2023/08/13 00:32:04;;;;;;;;;;;;;;;23.75;58.02;101608.47;5065410;28;19913;-59
2023/08/13 00:34:30;;;;;;;;;;;;;;;23.74;57.84;101607.59;5065329;28;19913;-59
2023/08/13 00:36:55;;;;;;;;;;;;;;;23.75;57.85;101608.47;5065771;28;19917;-59
2023/08/13 00:39:20;;;;;;;;;;;;;;;23.74;58.00;101615.75;5065479;28;19916;-59
2023/08/13 00:41:45;;;;;;;;;;;;;;;23.75;57.72;101603.06;5065508;28;19917;-60
2023/08/13 00:44:11;;;;;;;;;;;;;;;23.73;57.69;101608.66;5065364;28;19920;-60
2023/08/13 00:46:36;;;;;;;;;;;;;;;23.74;57.75;101610.31;5065010;28;19917;-59
2023/08/13 00:49:02;;;;;;;;;;;;;;;23.74;57.52;101612.19;5065263;28;19927;-59
2023/08/13 00:51:27;;;;;;;;;;;;;;;23.73;57.78;101607.81;5064103;28;19920;-59
2023/08/13 00:53:52;;;;;;;;;;;;;;;23.73;57.63;101608.66;5067870;28;19916;-59
2023/08/13 00:56:17;;;;;;;;;;;;;;;23.72;57.50;101612.41;5097834;28;20059;-59
2023/08/13 00:58:43;;;;;;;;;;;;;;;23.72;57.53;101617.00;5063616;28;19923;-59
2023/08/13 01:01:08;;;;;;;;;;;;;;;23.71;57.62;101616.16;5097570;28;19917;-59
2023/08/13 01:03:34;;;;;;;;;;;;;;;23.71;57.38;101610.72;5064537;28;19917;-59
2023/08/13 01:06:05;;;;;;;;;;;;;;;23.71;57.51;101609.88;5064789;28;19912;-60
2023/08/13 01:08:39;;;;;;;;;;;;;;;23.70;57.51;101611.72;5064330;28;19979;-59
2023/08/13 01:11:09;;;;;;;;;;;;;;;23.68;57.40;101613.78;5097367;28;19920;-60
2023/08/13 01:13:37;;;;;;;;;;;;;;;23.69;57.61;101610.88;5097257;28;19924;-60
2023/08/13 01:16:02;;;;;;;;;;;;;;;23.68;57.53;101608.34;5063275;28;19913;-59
2023/08/13 01:18:27;;;;;;;;;;;;;;;23.68;57.44;101605.66;5063270;28;19913;-59
2023/08/13 01:20:53;;;;;;;;;;;;;;;23.68;57.39;101605.66;5063360;28;19983;-53
2023/08/13 01:23:18;;;;;;;;;;;;;;;23.67;57.31;101603.97;5064948;28;20004;-59
2023/08/13 01:25:47;;;;;;;;;;;;;;;23.66;57.34;101603.13;5066448;28;19917;-59
2023/08/13 01:28:21;;;;;;;;;;;;;;;23.66;57.23;101607.69;5063796;28;19917;-59
2023/08/13 01:30:55;;;;;;;;;;;;;;;23.65;57.41;101611.44;5063391;28;19975;-59
2023/08/13 01:33:26;;;;;;;;;;;;;;;23.65;57.28;101612.28;5062963;28;19913;-59
2023/08/13 01:35:52;;;;;;;;;;;;;;;23.65;57.04;101611.44;5063239;28;19913;-59
2023/08/13 01:38:17;;;;;;;;;;;;;;;23.63;57.28;101608.88;5064421;28;19935;-60
2023/08/13 01:40:43;;;;;;;;;;;;;;;23.63;57.35;101610.75;5096785;28;19992;-60
2023/08/13 01:43:08;;;;;;;;;;;;;;;23.63;57.31;101618.91;5063983;28;19984;-55
2023/08/13 01:45:33;;;;;;;;;;;;;;;23.62;57.31;101611.78;5064450;28;20003;-60
2023/08/13 01:47:58;;;;;;;;;;;;;;;23.62;57.29;101614.50;5063783;28;19917;-60
2023/08/13 01:50:23;;;;;;;;;;;;;;;23.62;57.00;101614.50;5064492;28;19966;-59
2023/08/13 01:52:49;;;;;;;;;;;;;;;23.60;57.00;101609.22;5064312;28;19916;-59
2023/08/13 01:55:14;;;;;;;;;;;;;;;23.60;57.30;101605.69;5062962;28;20404;-59
2023/08/13 01:57:39;;;;;;;;;;;;;;;23.60;57.23;101606.53;5063981;28;19913;-59
2023/08/13 02:00:07;;;;;;;;;;;;;;;23.58;57.04;101603.16;5064376;28;19916;-60
2023/08/13 02:02:32;;;;;;;;;;;;;;;23.59;57.18;101604.00;5062425;28;20011;-60
2023/08/13 02:04:57;;;;;;;;;;;;;;;23.57;57.18;101609.59;5063771;28;20430;-59
2023/08/13 02:07:22;;;;;;;;;;;;;;;23.58;56.95;101615.91;5063914;28;19920;-60
2023/08/13 02:09:48;;;;;;;;;;;;;;;23.57;56.96;101606.03;5064015;28;19912;-59
2023/08/13 02:12:13;;;;;;;;;;;;;;;23.56;56.91;101599.78;5064200;28;19942;-60
2023/08/13 02:14:38;;;;;;;;;;;;;;;23.56;56.95;101609.78;5063975;28;19959;-59
2023/08/13 02:17:03;;;;;;;;;;;;;;;23.56;56.81;101609.78;5063757;28;19951;-59
2023/08/13 02:19:28;;;;;;;;;;;;;;;23.55;56.90;101608.09;5064050;28;19940;-60
2023/08/13 02:21:54;;;;;;;;;;;;;;;23.54;56.88;101615.41;5063758;28;19925;-60
2023/08/13 02:24:19;;;;;;;;;;;;;;;23.54;56.79;101614.56;5063697;28;19920;-59
2023/08/13 02:26:44;;;;;;;;;;;;;;;23.53;56.87;101610.16;5064914;28;19928;-59
2023/08/13 02:29:09;;;;;;;;;;;;;;;23.52;56.88;101606.59;5067885;28;19920;-59
2023/08/13 02:31:34;;;;;;;;;;;;;;;23.52;56.97;101612.03;5067715;28;19917;-59
2023/08/13 02:34:00;;;;;;;;;;;;;;;23.51;56.97;101604.91;5067838;28;19913;-59
2023/08/13 02:36:25;;;;;;;;;;;;;;;23.52;56.74;101603.03;5067371;28;19913;-60
2023/08/13 02:38:50;;;;;;;;;;;;;;;23.50;56.92;101603.22;5067507;28;19917;-59
2023/08/13 02:41:15;;;;;;;;;;;;;;;23.50;56.91;101605.09;5068556;28;19916;-60
2023/08/13 02:43:53;;;;;;;;;;;;;;;23.50;56.80;101602.38;5067382;28;19924;-59
2023/08/13 02:46:22;;;;;;;;;;;;;;;23.48;56.76;101602.53;5067656;28;19912;-59
2023/08/13 02:48:47;;;;;;;;;;;;;;;23.48;56.86;101599.84;5067177;28;19931;-60
2023/08/13 02:51:13;;;;;;;;;;;;;;;23.48;56.75;101604.41;5067564;28;19967;-60
2023/08/13 02:53:38;;;;;;;;;;;;;;;23.47;56.95;101602.75;5068826;28;19924;-61
2023/08/13 02:56:03;;;;;;;;;;;;;;;23.46;56.74;101601.91;5100178;28;20007;-52
2023/08/13 02:58:28;;;;;;;;;;;;;;;23.45;56.78;101601.06;5067310;28;19939;-59
2023/08/13 03:00:54;;;;;;;;;;;;;;;23.45;56.83;101600.22;5067471;28;19955;-60
2023/08/13 03:03:19;;;;;;;;;;;;;;;23.45;56.82;101602.94;5066932;28;20411;-59
2023/08/13 03:05:44;;;;;;;;;;;;;;;23.43;56.73;101608.53;5067108;28;19935;-60
2023/08/13 03:08:09;;;;;;;;;;;;;;;23.43;56.74;101594.97;5066876;28;20404;-59
2023/08/13 03:10:34;;;;;;;;;;;;;;;23.43;56.68;101605.81;5067603;28;19917;-59
2023/08/13 03:13:00;;;;;;;;;;;;;;;23.41;56.63;101605.16;5099470;28;20058;-59
2023/08/13 03:15:25;;;;;;;;;;;;;;;23.41;56.83;101605.16;5067268;28;19943;-59
2023/08/13 03:17:50;;;;;;;;;;;;;;;23.41;56.89;101607.03;5066790;28;19917;-59
2023/08/13 03:20:15;;;;;;;;;;;;;;;23.40;56.54;101606.16;5066735;28;19912;-60
2023/08/13 03:22:40;;;;;;;;;;;;;;;23.40;56.79;101608.88;5066534;28;19956;-61
2023/08/13 03:25:06;;;;;;;;;;;;;;;23.39;56.55;101611.78;5066212;28;19917;-60
2023/08/13 03:27:31;;;;;;;;;;;;;;;23.39;56.84;101603.66;5065636;28;19924;-59
2023/08/13 03:29:56;;;;;;;;;;;;;;;23.38;56.48;101596.53;5064894;28;19921;-59
2023/08/13 03:32:21;;;;;;;;;;;;;;;23.37;56.71;101606.56;5065230;28;19959;-60
2023/08/13 03:34:47;;;;;;;;;;;;;;;23.37;56.70;101606.56;5065037;28;19919;-60
2023/08/13 03:37:12;;;;;;;;;;;;;;;23.35;56.71;101608.59;5065204;28;20466;-60
2023/08/13 03:39:37;;;;;;;;;;;;;;;23.36;56.58;101606.72;5065362;28;20436;-60
2023/08/13 03:42:02;;;;;;;;;;;;;;;23.36;56.61;101604.00;5065761;28;19984;-60
2023/08/13 03:44:27;;;;;;;;;;;;;;;23.34;56.58;101598.75;5065485;28;19938;-60
2023/08/13 03:46:52;;;;;;;;;;;;;;;23.33;56.57;101605.22;5065068;28;20374;-59
2023/08/13 03:49:18;;;;;;;;;;;;;;;23.34;56.69;101604.19;5065393;28;19916;-60
2023/08/13 03:51:43;;;;;;;;;;;;;;;23.32;56.70;101608.97;5065600;28;19924;-59
2023/08/13 03:54:08;;;;;;;;;;;;;;;23.33;56.79;101609.81;5065439;28;19984;-59
2023/08/13 03:56:33;;;;;;;;;;;;;;;23.31;56.61;101612.69;5063076;28;19944;-60
2023/08/13 03:58:59;;;;;;;;;;;;;;;23.31;56.64;101609.97;5065132;28;19938;-59
2023/08/13 04:01:24;;;;;;;;;;;;;;;23.30;56.45;101613.72;5065288;28;19956;-58
2023/08/13 04:03:49;;;;;;;;;;;;;;;23.30;56.65;101615.59;5064785;28;19966;-59
2023/08/13 04:06:14;;;;;;;;;;;;;;;23.29;56.44;101612.03;5064815;28;19924;-60
2023/08/13 04:08:39;;;;;;;;;;;;;;;23.27;56.57;101611.34;5064586;28;19943;-60
2023/08/13 04:11:05;;;;;;;;;;;;;;;23.27;56.44;101616.78;5065226;28;20365;-59
2023/08/13 04:13:30;;;;;;;;;;;;;;;23.27;56.53;101618.66;5065119;28;19912;-59
2023/08/13 04:15:55;;;;;;;;;;;;;;;23.26;56.58;101615.09;5064936;28;19924;-60
2023/08/13 04:18:20;;;;;;;;;;;;;;;23.26;56.47;101612.38;5064552;28;19917;-60
2023/08/13 04:20:45;;;;;;;;;;;;;;;23.25;56.48;101608.00;4990632;28;2074783;-59
2023/08/13 04:23:11;;;;;;;;;;;;;;;23.25;56.58;101607.16;5066203;28;19921;-60
2023/08/13 04:25:36;;;;;;;;;;;;;;;23.24;56.24;101606.31;5065674;28;19913;-60
2023/08/13 04:28:02;;;;;;;;;;;;;;;23.23;56.34;101612.75;5065458;28;20027;-60
2023/08/13 04:30:27;;;;;;;;;;;;;;;23.23;56.50;101603.75;5065922;28;19951;-59
2023/08/13 04:32:53;;;;;;;;;;;;;;;23.22;56.35;101597.50;5065531;28;20605;-60
2023/08/13 04:35:19;;;;;;;;;;;;;;;23.22;56.18;101602.91;5065029;28;19921;-59
2023/08/13 04:37:44;;;;;;;;;;;;;;;23.21;56.24;101606.66;5065486;28;19955;-60
2023/08/13 04:40:10;;;;;;;;;;;;;;;23.20;56.21;101600.41;5065683;28;20375;-60
2023/08/13 04:42:35;;;;;;;;;;;;;;;23.19;56.30;101606.84;5065465;28;19952;-59
2023/08/13 04:45:00;;;;;;;;;;;;;;;23.20;56.40;101605.00;5065269;28;19928;-58
2023/08/13 04:47:26;;;;;;;;;;;;;;;23.20;56.40;101605.00;5064838;28;19927;-59
2023/08/13 04:49:51;;;;;;;;;;;;;;;23.20;56.27;101618.56;5064616;28;19917;-59
2023/08/13 04:52:16;;;;;;;;;;;;;;;23.19;56.32;101600.56;5067438;28;19936;-59
2023/08/13 04:54:41;;;;;;;;;;;;;;;23.19;56.39;101612.28;5065173;28;19920;-59
2023/08/13 04:57:06;;;;;;;;;;;;;;;23.18;56.14;101609.72;5065272;28;19920;-59
2023/08/13 04:59:32;;;;;;;;;;;;;;;23.18;56.32;101612.44;5063811;28;19913;-59
2023/08/13 05:01:57;;;;;;;;;;;;;;;23.18;56.19;101616.00;5064415;28;19920;-59
2023/08/13 05:04:22;;;;;;;;;;;;;;;23.17;56.25;101617.03;5064150;28;19912;-60
2023/08/13 05:06:47;;;;;;;;;;;;;;;23.17;56.20;101617.03;5061153;28;19920;-59
2023/08/13 05:09:12;;;;;;;;;;;;;;;23.17;56.14;101610.75;5064607;28;19916;-59
2023/08/13 05:11:38;;;;;;;;;;;;;;;23.17;56.34;101611.59;5065109;28;20289;-60
2023/08/13 05:14:03;;;;;;;;;;;;;;;23.16;56.18;101614.50;5064792;28;20285;-59
2023/08/13 05:16:28;;;;;;;;;;;;;;;23.16;56.18;101609.91;5064782;28;19912;-59
2023/08/13 05:18:54;;;;;;;;;;;;;;;23.15;56.24;101594.69;5064189;28;19912;-60
2023/08/13 05:21:19;;;;;;;;;;;;;;;23.15;56.20;101597.38;5064497;28;19975;-60
2023/08/13 05:23:44;;;;;;;;;;;;;;;23.15;56.17;101597.38;5065723;28;19927;-59
2023/08/13 05:26:13;;;;;;;;;;;;;;;23.16;56.08;101600.94;5066454;28;20020;-60
2023/08/13 05:28:38;;;;;;;;;;;;;;;23.14;56.27;101606.53;5061172;28;20013;-57
2023/08/13 05:31:03;;;;;;;;;;;;;;;23.14;56.29;101616.53;5066528;28;19916;-59
2023/08/13 05:33:28;;;;;;;;;;;;;;;23.14;56.37;101611.13;5063730;28;19917;-60
2023/08/13 05:35:54;;;;;;;;;;;;;;;23.14;56.05;101609.25;5063704;28;19920;-60
2023/08/13 05:38:19;;;;;;;;;;;;;;;23.14;56.35;101614.66;5063546;28;19917;-60
2023/08/13 05:40:44;;;;;;;;;;;;;;;23.14;56.12;101617.38;5065159;28;19921;-59
2023/08/13 05:43:10;;;;;;;;;;;;;;;23.13;55.92;101618.41;5063910;28;19932;-60
2023/08/13 05:45:35;;;;;;;;;;;;;;;23.14;56.10;101616.53;5065956;28;19947;-60
2023/08/13 05:48:00;;;;;;;;;;;;;;;23.13;56.14;101617.56;5063189;28;19971;-59
2023/08/13 05:50:25;;;;;;;;;;;;;;;23.12;56.01;101627.56;5066011;28;19928;-56
2023/08/13 05:52:51;;;;;;;;;;;;;;;23.13;56.03;101623.84;5063784;28;20011;-58
2023/08/13 05:55:16;;;;;;;;;;;;;;;23.12;56.08;101629.44;5063378;28;19916;-60
2023/08/13 05:57:41;;;;;;;;;;;;;;;23.12;56.02;101632.16;5063555;28;20017;-60
2023/08/13 06:00:09;;;;;;;;;;;;;;;23.11;56.05;101628.63;5064247;28;19947;-60
2023/08/13 06:02:35;;;;;;;;;;;;;;;23.11;55.98;101627.78;5063119;28;19921;-60
2023/08/13 06:05:00;;;;;;;;;;;;;;;23.11;55.89;101633.19;5064857;28;19927;-60
2023/08/13 06:07:25;;;;;;;;;;;;;;;23.11;55.90;101631.31;5081478;28;19921;-60
2023/08/13 06:09:51;;;;;;;;;;;;;;;23.10;56.14;101637.75;5064823;28;19920;-59
2023/08/13 06:12:16;;;;;;;;;;;;;;;23.11;55.99;101638.63;5063833;28;19920;-60
2023/08/13 06:14:42;;;;;;;;;;;;;;;23.11;56.12;101644.03;5063663;28;19928;-60
2023/08/13 06:17:08;;;;;;;;;;;;;;;23.09;56.18;101638.78;5063605;28;19924;-60
2023/08/13 06:19:33;;;;;;;;;;;;;;;23.10;56.09;101642.34;5063753;28;19916;-60
2023/08/13 06:21:58;;;;;;;;;;;;;;;23.10;55.84;101650.47;5063262;28;20421;-57
2023/08/13 06:24:23;;;;;;;;;;;;;;;23.10;55.84;101648.59;5093053;28;19917;-59
2023/08/13 06:26:48;;;;;;;;;;;;;;;23.10;56.08;101640.47;5063433;28;19917;-60
2023/08/13 06:29:14;;;;;;;;;;;;;;;23.10;56.07;101636.91;5063431;28;19924;-59
2023/08/13 06:31:39;;;;;;;;;;;;;;;23.09;55.83;101633.34;5060293;28;19917;-58
2023/08/13 06:34:04;;;;;;;;;;;;;;;23.10;56.09;101640.47;5062432;28;19923;-56
2023/08/13 06:36:29;;;;;;;;;;;;;;;23.09;56.02;101644.22;5078771;28;19917;-59
2023/08/13 06:38:55;;;;;;;;;;;;;;;23.10;56.03;101642.34;5063389;28;19917;-60
2023/08/13 06:41:20;;;;;;;;;;;;;;;23.10;56.18;101648.59;5063156;28;19925;-60
2023/08/13 06:43:45;;;;;;;;;;;;;;;23.10;56.19;101645.03;5062866;28;19970;-59
2023/08/13 06:46:10;;;;;;;;;;;;;;;23.10;56.03;101643.16;5063923;28;20381;-59
2023/08/13 06:48:38;;;;;;;;;;;;;;;23.11;56.20;101642.16;5063415;28;20412;-59
2023/08/13 06:51:04;;;;;;;;;;;;;;;23.10;56.08;101640.47;5061425;28;19917;-56
2023/08/13 06:53:29;;;;;;;;;;;;;;;23.11;56.14;101644.88;5064575;28;19920;-61
2023/08/13 06:55:54;;;;;;;;;;;;;;;23.11;55.84;101635.91;5063640;28;20011;-60
2023/08/13 06:58:19;;;;;;;;;;;;;;;23.11;56.17;101647.59;5063502;28;20358;-60
2023/08/13 07:00:45;;;;;;;;;;;;;;;23.11;55.86;101649.47;5063261;28;19917;-60
2023/08/13 07:03:11;;;;;;;;;;;;;;;23.11;55.96;101639.47;5063143;28;19923;-60
2023/08/13 07:05:36;;;;;;;;;;;;;;;23.11;55.84;101642.16;5063151;28;19912;-59
2023/08/13 07:08:02;;;;;;;;;;;;;;;23.12;55.77;101646.56;5063308;28;20419;-59
2023/08/13 07:10:28;;;;;;;;;;;;;;;23.11;56.00;101644.88;5063506;28;19913;-58
2023/08/13 07:12:53;;;;;;;;;;;;;;;23.12;55.94;101645.72;5064423;28;19917;-60
2023/08/13 07:15:18;;;;;;;;;;;;;;;23.12;55.95;101648.44;5067079;28;19912;-60
2023/08/13 07:17:43;;;;;;;;;;;;;;;23.12;56.13;101643.84;5066532;28;19916;-60
2023/08/13 07:20:09;;;;;;;;;;;;;;;23.12;56.00;101638.44;5066443;28;19979;-60
2023/08/13 07:22:35;;;;;;;;;;;;;;;23.12;56.19;101641.16;5066527;28;20332;-60
2023/08/13 07:25:00;;;;;;;;;;;;;;;23.12;56.01;101641.16;5066504;28;19914;-60
2023/08/13 07:27:25;;;;;;;;;;;;;;;23.14;56.03;101643.66;5066507;28;20739;-60
2023/08/13 07:29:51;;;;;;;;;;;;;;;23.13;55.91;101642.81;5098358;28;19917;-60
2023/08/13 07:32:16;;;;;;;;;;;;;;;23.13;56.03;101645.53;5066118;28;19920;-60
2023/08/13 07:34:41;;;;;;;;;;;;;;;23.14;55.92;101649.09;5066457;28;19920;-60
2023/08/13 07:37:06;;;;;;;;;;;;;;;23.14;55.87;101646.38;5066972;28;19913;-60
2023/08/13 07:39:31;;;;;;;;;;;;;;;23.14;56.00;101636.38;5066064;28;19935;-60
2023/08/13 07:41:57;;;;;;;;;;;;;;;23.15;55.87;101642.63;5066009;28;19917;-59
2023/08/13 07:44:22;;;;;;;;;;;;;;;23.14;56.04;101641.78;5065981;28;19943;-59
2023/08/13 07:46:50;;;;;;;;;;;;;;;23.15;56.11;101643.50;5067405;28;19943;-60
2023/08/13 07:49:15;;;;;;;;;;;;;;;23.16;56.09;101647.06;5065317;28;19948;-59
2023/08/13 07:51:40;;;;;;;;;;;;;;;23.16;55.88;101645.19;5068853;28;19920;-60
2023/08/13 07:54:06;;;;;;;;;;;;;;;23.16;56.01;101642.47;5066383;28;19919;-60
2023/08/13 07:56:31;;;;;;;;;;;;;;;23.17;55.92;101643.31;5068652;28;19932;-60
2023/08/13 07:58:56;;;;;;;;;;;;;;;23.17;55.85;101638.72;5065696;28;19917;-59
2023/08/13 08:01:21;;;;;;;;;;;;;;;23.17;55.72;101643.31;5066184;28;19920;-60
2023/08/13 08:03:46;;;;;;;;;;;;;;;23.18;55.83;101647.72;5065629;28;19916;-60
2023/08/13 08:06:15;;;;;;;;;;;;;;;23.18;55.56;101643.13;5063521;28;19923;-60
2023/08/13 08:08:40;;;;;;;;;;;;;;;23.18;55.82;101637.69;5066154;28;19928;-60
2023/08/13 08:11:05;;;;;;;;;;;;;;;23.19;55.69;101641.25;5065706;28;19923;-60
2023/08/13 08:13:32;;;;;;;;;;;;;;;23.19;55.77;101639.41;5065925;28;19943;-59
2023/08/13 08:15:57;;;;;;;;;;;;;;;23.19;55.84;101647.56;5065805;28;19963;-60
2023/08/13 08:18:22;;;;;;;;;;;;;;;23.20;55.72;101642.97;5065009;28;19913;-60
2023/08/13 08:20:47;;;;;;;;;;;;;;;23.18;55.81;101637.69;5065174;28;19920;-60
2023/08/13 08:23:13;;;;;;;;;;;;;;;23.18;55.70;101642.28;5065264;28;19927;-60
2023/08/13 08:25:39;;;;;;;;;;;;;;;23.18;55.83;101648.56;5064678;28;19920;-60
2023/08/13 08:28:04;;;;;;;;;;;;;;;23.18;55.84;101642.28;5094486;28;19921;-59
2023/08/13 08:30:29;;;;;;;;;;;;;;;23.17;55.83;101646.88;5065357;28;19921;-58
2023/08/13 08:32:54;;;;;;;;;;;;;;;23.17;55.80;101649.59;5068749;28;19923;-60
2023/08/13 08:35:20;;;;;;;;;;;;;;;23.16;55.90;101644.34;5064574;28;19923;-60
2023/08/13 08:37:45;;;;;;;;;;;;;;;23.16;55.95;101642.47;5066689;28;19916;-60
2023/08/13 08:40:10;;;;;;;;;;;;;;;23.16;55.77;101638.94;5065114;28;19940;-60
2023/08/13 08:42:36;;;;;;;;;;;;;;;23.16;55.89;101645.19;5065065;28;19916;-59
2023/08/13 08:45:01;;;;;;;;;;;;;;;23.15;55.78;101638.09;5097558;28;20289;-60
2023/08/13 08:47:26;;;;;;;;;;;;;;;23.16;55.84;101645.19;5067073;28;19924;-59
2023/08/13 08:49:53;;;;;;;;;;;;;;;23.16;55.79;101639.75;5063315;28;19917;-60
2023/08/13 08:52:18;;;;;;;;;;;;;;;23.16;56.04;101638.94;5069131;28;20370;-59
2023/08/13 08:54:44;;;;;;;;;;;;;;;23.16;55.91;101633.50;5063861;28;19943;-60
2023/08/13 08:57:09;;;;;;;;;;;;;;;23.15;55.97;101631.78;5063542;28;20293;-60
2023/08/13 08:59:34;;;;;;;;;;;;;;;23.16;55.93;101628.06;5065737;28;20012;-60
2023/08/13 09:02:00;;;;;;;;;;;;;;;23.15;55.85;101626.34;5064126;28;19921;-60
2023/08/13 09:04:25;;;;;;;;;;;;;;;23.15;55.84;101632.66;5095329;28;19916;-60
2023/08/13 09:06:56;;;;;;;;;;;;;;;23.16;56.09;101625.34;5064674;28;19921;-60
2023/08/13 09:09:22;;;;;;;;;;;;;;;23.16;55.98;101620.78;5066197;28;19947;-60
2023/08/13 09:11:47;;;;;;;;;;;;;;;23.16;55.93;101623.50;5065530;28;19917;-59
2023/08/13 09:14:13;;;;;;;;;;;;;;;23.17;56.11;101613.47;5064839;28;19952;-60
2023/08/13 09:16:44;;;;;;;;;;;;;;;23.16;56.04;101617.22;5063324;28;19917;-60
2023/08/13 09:19:09;;;;;;;;;;;;;;;23.17;56.15;101624.31;5096849;28;19917;-60
2023/08/13 09:21:34;;;;;;;;;;;;;;;23.17;55.92;101608.06;5063929;28;19946;-60
2023/08/13 09:23:59;;;;;;;;;;;;;;;23.17;56.09;101611.59;5064080;28;19921;-60
2023/08/13 09:26:25;;;;;;;;;;;;;;;23.17;56.11;101613.47;5068142;28;19909;-60
2023/08/13 09:28:50;;;;;;;;;;;;;;;23.18;56.13;101613.28;5064468;28;19924;-60
2023/08/13 09:31:16;;;;;;;;;;;;;;;23.18;56.28;101605.16;5065215;28;20408;-60
2023/08/13 09:33:41;;;;;;;;;;;;;;;23.18;56.20;101613.28;5064290;28;20316;-60
2023/08/13 09:36:06;;;;;;;;;;;;;;;23.19;56.08;101611.41;5094949;28;19916;-60
2023/08/13 09:38:31;;;;;;;;;;;;;;;23.19;56.30;101601.44;5065386;28;19917;-60
2023/08/13 09:40:56;;;;;;;;;;;;;;;23.20;56.26;101596.84;5064390;28;19928;-60
2023/08/13 09:43:22;;;;;;;;;;;;;;;23.21;56.06;101601.25;5093590;28;19967;-60
2023/08/13 09:45:47;;;;;;;;;;;;;;;23.21;56.15;101595.81;5062590;28;20011;-60
2023/08/13 09:48:12;;;;;;;;;;;;;;;23.23;56.17;101601.03;5065383;28;19925;-60
2023/08/13 09:50:41;;;;;;;;;;;;;;;23.23;56.30;101603.75;5062860;28;19917;-60
2023/08/13 09:53:08;;;;;;;;;;;;;;;23.24;56.31;101602.75;5063238;28;19916;-59
2023/08/13 09:55:34;;;;;;;;;;;;;;;23.25;56.53;101589.00;5062948;28;19920;-59
2023/08/13 09:58:02;;;;;;;;;;;;;;;23.26;56.40;101601.53;5063959;28;20035;-59
2023/08/13 10:00:28;;;;;;;;;;;;;;;23.27;56.48;101597.78;5094993;28;19917;-60
2023/08/13 10:02:53;;;;;;;;;;;;;;;23.29;56.41;101590.34;5065101;28;19964;-59
2023/08/13 10:05:19;;;;;;;;;;;;;;;23.30;56.38;101586.59;5065192;28;19921;-59
2023/08/13 10:07:44;;;;;;;;;;;;;;;23.32;56.38;101597.25;5093901;28;19929;-60
2023/08/13 10:10:09;;;;;;;;;;;;;;;23.33;56.29;101591.66;5094573;28;19998;-60
2023/08/13 10:12:34;;;;;;;;;;;;;;;23.34;56.37;101589.78;5094491;28;19921;-60
2023/08/13 10:15:00;;;;;;;;;;;;;;;23.36;56.43;101590.44;5062541;28;19920;-60
2023/08/13 10:17:27;;;;;;;;;;;;;;;23.37;56.25;101590.28;5063481;28;19917;-56
2023/08/13 10:19:53;;;;;;;;;;;;;;;23.37;56.27;101590.28;5063664;28;20039;-59
2023/08/13 10:22:32;;;;;;;;;;;;;;;23.39;56.38;101593.63;5063320;28;19994;-59
2023/08/13 10:24:58;;;;;;;;;;;;;;;23.39;56.32;101590.06;5065702;28;19927;-59
2023/08/13 10:27:23;;;;;;;;;;;;;;;23.39;56.33;101590.91;5062347;28;19917;-60
2023/08/13 10:29:49;;;;;;;;;;;;;;;23.40;56.48;101589.03;5091377;28;19947;-60
2023/08/13 10:32:15;;;;;;;;;;;;;;;23.41;56.43;101588.03;5063053;28;19917;-60
2023/08/13 10:34:47;;;;;;;;;;;;;;;23.40;56.46;101587.16;5062738;28;19913;-60
2023/08/13 10:37:22;;;;;;;;;;;;;;;23.40;56.42;101587.16;5064307;28;19923;-59
2023/08/13 10:40:08;;;;;;;;;;;;;;;23.42;56.38;101582.41;5063718;28;19960;-60
2023/08/13 10:42:34;;;;;;;;;;;;;;;23.43;56.48;101577.84;5061296;28;19916;-60
2023/08/13 10:45:09;;;;;;;;;;;;;;;23.43;56.50;101583.25;5063725;28;19984;-60
2023/08/13 10:47:38;;;;;;;;;;;;;;;23.43;56.37;101583.25;5062048;28;20293;-60
2023/08/13 10:50:04;;;;;;;;;;;;;;;23.42;56.67;101574.28;5067290;28;19920;-59
2023/08/13 10:52:30;;;;;;;;;;;;;;;23.43;56.53;101580.53;5068869;28;19967;-59
2023/08/13 10:54:57;;;;;;;;;;;;;;;23.42;56.63;101579.72;5067034;28;20628;-60
2023/08/13 10:57:25;;;;;;;;;;;;;;;23.42;56.60;101571.56;5067552;28;19925;-60
2023/08/13 10:59:51;;;;;;;;;;;;;;;23.43;56.47;101573.25;5068826;28;19920;-60
2023/08/13 11:02:18;;;;;;;;;;;;;;;23.44;56.40;101580.34;5098034;28;19984;-59
2023/08/13 11:04:44;;;;;;;;;;;;;;;23.45;56.73;101573.09;5066470;28;19981;-59
2023/08/13 11:07:10;;;;;;;;;;;;;;;23.47;56.40;101575.59;5067095;28;19917;-59
2023/08/13 11:09:35;;;;;;;;;;;;;;;23.48;56.63;101577.28;5071060;28;19929;-59
2023/08/13 11:12:00;;;;;;;;;;;;;;;23.49;56.52;101571.69;5068580;28;19920;-59
2023/08/13 11:14:26;;;;;;;;;;;;;;;23.51;56.38;101571.50;5068097;28;19917;-59
2023/08/13 11:16:51;;;;;;;;;;;;;;;23.52;56.41;101573.19;5066442;28;19921;-59
2023/08/13 11:19:16;;;;;;;;;;;;;;;23.53;56.41;101574.84;5068835;28;19928;-59
2023/08/13 11:21:42;;;;;;;;;;;;;;;23.52;56.34;101578.59;5067692;28;19920;-59
2023/08/13 11:24:11;;;;;;;;;;;;;;;23.52;56.58;101574.00;5098542;28;19921;-59
2023/08/13 11:26:36;;;;;;;;;;;;;;;23.52;56.72;101578.59;5066700;28;19980;-59
2023/08/13 11:29:01;;;;;;;;;;;;;;;23.52;56.71;101582.16;5097270;28;19964;-59
2023/08/13 11:31:26;;;;;;;;;;;;;;;23.52;56.49;101582.16;5068027;28;19920;-58
2023/08/13 11:33:52;;;;;;;;;;;;;;;23.52;56.59;101574.00;5066814;28;19920;-58
2023/08/13 11:36:17;;;;;;;;;;;;;;;23.52;56.71;101579.44;5066156;28;19921;-59
2023/08/13 11:38:42;;;;;;;;;;;;;;;23.52;56.67;101575.88;5066190;28;20000;-62
2023/08/13 11:41:13;;;;;;;;;;;;;;;23.53;56.68;101572.97;5066526;28;19917;-62
2023/08/13 11:43:39;;;;;;;;;;;;;;;23.54;56.54;101571.97;5063674;28;19920;-62
2023/08/13 11:46:05;;;;;;;;;;;;;;;23.56;56.67;101560.94;5066212;28;19936;-62
2023/08/13 11:48:31;;;;;;;;;;;;;;;23.56;56.79;101564.47;5066029;28;19996;-61
2023/08/13 11:51:09;;;;;;;;;;;;;;;23.58;56.56;101561.59;5069941;28;19916;-59
2023/08/13 11:53:42;;;;;;;;;;;;;;;23.59;56.61;101555.13;5065641;28;19923;-59
2023/08/13 11:56:07;;;;;;;;;;;;;;;23.54;56.59;101552.13;5065930;28;20031;-59
2023/08/13 11:58:32;;;;;;;;;;;;;;;23.60;56.80;101559.53;5065681;28;20385;-61
2023/08/13 12:00:57;;;;;;;;;;;;;;;23.61;56.69;101558.50;5066311;28;19916;-62
2023/08/13 12:03:23;;;;;;;;;;;;;;;23.61;56.55;101555.78;5068325;28;20362;-62
2023/08/13 12:05:50;;;;;;;;;;;;;;;23.63;56.66;101556.47;5065447;28;19916;-62
2023/08/13 12:08:16;;;;;;;;;;;;;;;23.62;56.55;101552.91;5065342;28;19925;-61
2023/08/13 12:10:41;;;;;;;;;;;;;;;23.64;56.76;101550.00;5067003;28;19959;-62
2023/08/13 12:13:07;;;;;;;;;;;;;;;23.63;56.91;101554.59;5065183;28;19920;-62
2023/08/13 12:15:32;;;;;;;;;;;;;;;23.63;56.96;101554.59;5065960;28;19931;-61
2023/08/13 12:17:57;;;;;;;;;;;;;;;23.63;56.82;101551.88;5064658;28;19917;-62
2023/08/13 12:20:23;;;;;;;;;;;;;;;23.62;56.88;101550.19;5067941;28;19927;-59
2023/08/13 12:22:48;;;;;;;;;;;;;;;23.61;56.97;101544.94;5065554;28;19928;-59
2023/08/13 12:25:14;;;;;;;;;;;;;;;23.59;56.95;101545.13;5066021;28;19912;-59
2023/08/13 12:27:39;;;;;;;;;;;;;;;23.60;57.01;101543.25;5065335;28;19920;-59